sensor_id;sensor_type;location;lat;lon;timestamp;pressure;altitude;pressure_sealevel;temperature;humidity
73518;BME280;61766;60.318;25.044;2024-01-15T00:00:41;98333.17;;;-1.57;38.36
73518;BME280;61766;60.318;25.044;2024-01-15T00:03:07;98327.38;;;-1.53;37.96
73518;BME280;61766;60.318;25.044;2024-01-15T00:05:32;98323.58;;;-1.63;37.77
73518;BME280;61766;60.318;25.044;2024-01-15T00:07:57;98318.65;;;-1.04;37.42
73518;BME280;61766;60.318;25.044;2024-01-15T00:10:23;98316.03;;;-1.38;37.51
73518;BME280;61766;60.318;25.044;2024-01-15T00:12:48;98309.49;;;-1.51;37.37
73518;BME280;61766;60.318;25.044;2024-01-15T00:15:14;98312.07;;;-1.37;37.44
73518;BME280;61766;60.318;25.044;2024-01-15T00:17:40;98306.68;;;-1.00;37.41
73518;BME280;61766;60.318;25.044;2024-01-15T00:20:06;98309.28;;;-1.01;37.38
73518;BME280;61766;60.318;25.044;2024-01-15T00:22:31;98308.44;;;-0.98;37.26
73518;BME280;61766;60.318;25.044;2024-01-15T00:24:56;98307.65;;;-1.55;37.52
73518;BME280;61766;60.318;25.044;2024-01-15T00:27:22;98307.08;;;-1.45;37.42
73518;BME280;61766;60.318;25.044;2024-01-15T00:29:48;98303.40;;;-1.33;37.69
73518;BME280;61766;60.318;25.044;2024-01-15T00:32:13;98301.99;;;-1.37;37.77
73518;BME280;61766;60.318;25.044;2024-01-15T00:34:38;98296.86;;;-1.62;37.89
73518;BME280;61766;60.318;25.044;2024-01-15T00:37:04;98291.18;;;-1.70;37.63
73518;BME280;61766;60.318;25.044;2024-01-15T00:39:29;98290.90;;;-1.21;37.71
73518;BME280;61766;60.318;25.044;2024-01-15T00:41:54;98291.32;;;-1.68;37.71
73518;BME280;61766;60.318;25.044;2024-01-15T00:44:19;98292.87;;;-1.35;37.74
73518;BME280;61766;60.318;25.044;2024-01-15T00:46:46;98287.38;;;-1.60;37.79
73518;BME280;61766;60.318;25.044;2024-01-15T00:49:10;98290.88;;;-1.72;37.83
73518;BME280;61766;60.318;25.044;2024-01-15T00:51:35;98284.80;;;-1.72;37.87
73518;BME280;61766;60.318;25.044;2024-01-15T00:54:01;98283.49;;;-1.66;37.91
73518;BME280;61766;60.318;25.044;2024-01-15T00:56:26;98278.79;;;-1.47;38.02
73518;BME280;61766;60.318;25.044;2024-01-15T00:58:51;98274.30;;;-1.26;37.63
73518;BME280;61766;60.318;25.044;2024-01-15T01:01:17;98272.42;;;-1.60;37.70
73518;BME280;61766;60.318;25.044;2024-01-15T01:03:42;98267.87;;;-1.43;37.54
73518;BME280;61766;60.318;25.044;2024-01-15T01:06:07;98265.75;;;-1.41;37.38
73518;BME280;61766;60.318;25.044;2024-01-15T01:08:32;98263.60;;;-1.38;37.59
73518;BME280;61766;60.318;25.044;2024-01-15T01:10:59;98264.24;;;-1.40;37.77
73518;BME280;61766;60.318;25.044;2024-01-15T01:13:23;98262.97;;;-1.57;37.67
73518;BME280;61766;60.318;25.044;2024-01-15T01:15:49;98260.56;;;-1.71;37.57
73518;BME280;61766;60.318;25.044;2024-01-15T01:18:14;98258.85;;;-1.37;37.52
73518;BME280;61766;60.318;25.044;2024-01-15T01:20:39;98258.14;;;-1.19;37.32
73518;BME280;61766;60.318;25.044;2024-01-15T01:23:05;98258.23;;;-1.36;37.09
73518;BME280;61766;60.318;25.044;2024-01-15T01:25:30;98260.53;;;-1.13;37.08
73518;BME280;61766;60.318;25.044;2024-01-15T01:27:56;98257.98;;;-1.10;36.98
73518;BME280;61766;60.318;25.044;2024-01-15T01:30:21;98255.86;;;-1.45;37.20
73518;BME280;61766;60.318;25.044;2024-01-15T01:32:46;98251.48;;;-1.46;37.39
73518;BME280;61766;60.318;25.044;2024-01-15T01:35:12;98252.49;;;-1.22;37.12
73518;BME280;61766;60.318;25.044;2024-01-15T01:37:37;98250.13;;;-1.27;37.21
73518;BME280;61766;60.318;25.044;2024-01-15T01:40:03;98251.55;;;-1.52;37.41
73518;BME280;61766;60.318;25.044;2024-01-15T01:42:29;98250.19;;;-1.41;37.46
73518;BME280;61766;60.318;25.044;2024-01-15T01:44:54;98246.82;;;-1.53;37.53
73518;BME280;61766;60.318;25.044;2024-01-15T01:47:20;98247.65;;;-1.48;37.34
73518;BME280;61766;60.318;25.044;2024-01-15T01:49:45;98246.53;;;-1.51;37.71
73518;BME280;61766;60.318;25.044;2024-01-15T01:52:10;98242.97;;;-1.55;37.75
73518;BME280;61766;60.318;25.044;2024-01-15T01:54:35;98240.94;;;-1.57;38.05
73518;BME280;61766;60.318;25.044;2024-01-15T01:57:00;98239.14;;;-1.46;37.86
73518;BME280;61766;60.318;25.044;2024-01-15T01:59:27;98236.51;;;-1.52;37.58
73518;BME280;61766;60.318;25.044;2024-01-15T02:01:52;98235.61;;;-1.78;37.47
73518;BME280;61766;60.318;25.044;2024-01-15T02:04:17;98230.61;;;-1.37;37.63
73518;BME280;61766;60.318;25.044;2024-01-15T02:06:42;98228.67;;;-1.34;37.49
73518;BME280;61766;60.318;25.044;2024-01-15T02:09:07;98227.66;;;-1.34;37.43
73518;BME280;61766;60.318;25.044;2024-01-15T02:11:33;98227.11;;;-1.67;37.72
73518;BME280;61766;60.318;25.044;2024-01-15T02:13:58;98226.28;;;-1.65;37.80
73518;BME280;61766;60.318;25.044;2024-01-15T02:16:24;98228.90;;;-1.67;37.99
73518;BME280;61766;60.318;25.044;2024-01-15T02:18:49;98230.76;;;-1.39;37.54
73518;BME280;61766;60.318;25.044;2024-01-15T02:21:15;98231.51;;;-1.67;37.74
73518;BME280;61766;60.318;25.044;2024-01-15T02:23:41;98234.95;;;-1.88;37.93
73518;BME280;61766;60.318;25.044;2024-01-15T02:26:06;98234.99;;;-1.84;37.70
73518;BME280;61766;60.318;25.044;2024-01-15T02:28:32;98235.74;;;-1.74;37.93
73518;BME280;61766;60.318;25.044;2024-01-15T02:30:57;98237.59;;;-1.81;38.10
73518;BME280;61766;60.318;25.044;2024-01-15T02:33:23;98236.24;;;-1.62;37.74
73518;BME280;61766;60.318;25.044;2024-01-15T02:35:48;98238.79;;;-1.61;37.83
73518;BME280;61766;60.318;25.044;2024-01-15T02:38:14;98241.07;;;-1.70;37.51
73518;BME280;61766;60.318;25.044;2024-01-15T02:40:40;98240.99;;;-1.45;37.61
73518;BME280;61766;60.318;25.044;2024-01-15T02:43:05;98241.00;;;-1.61;37.38
73518;BME280;61766;60.318;25.044;2024-01-15T02:45:30;98241.20;;;-1.51;37.39
73518;BME280;61766;60.318;25.044;2024-01-15T02:47:56;98242.09;;;-1.87;37.93
73518;BME280;61766;60.318;25.044;2024-01-15T02:50:22;98239.74;;;-2.04;37.96
73518;BME280;61766;60.318;25.044;2024-01-15T02:52:47;98236.81;;;-1.78;37.84
73518;BME280;61766;60.318;25.044;2024-01-15T02:55:13;98237.79;;;-1.92;38.00
73518;BME280;61766;60.318;25.044;2024-01-15T02:57:38;98236.70;;;-2.03;38.00
73518;BME280;61766;60.318;25.044;2024-01-15T03:00:04;98235.99;;;-2.29;38.26
73518;BME280;61766;60.318;25.044;2024-01-15T03:02:29;98237.83;;;-2.25;38.24
73518;BME280;61766;60.318;25.044;2024-01-15T03:04:55;98243.32;;;-2.47;38.57
73518;BME280;61766;60.318;25.044;2024-01-15T03:07:20;98240.79;;;-2.43;38.47
73518;BME280;61766;60.318;25.044;2024-01-15T03:09:46;98238.53;;;-2.40;38.84
73518;BME280;61766;60.318;25.044;2024-01-15T03:12:11;98237.47;;;-2.62;38.59
73518;BME280;61766;60.318;25.044;2024-01-15T03:14:38;98234.86;;;-2.59;38.69
73518;BME280;61766;60.318;25.044;2024-01-15T03:17:02;98234.69;;;-2.40;38.99
73518;BME280;61766;60.318;25.044;2024-01-15T03:19:28;98227.39;;;-2.55;38.91
73518;BME280;61766;60.318;25.044;2024-01-15T03:21:53;98229.76;;;-2.66;39.17
73518;BME280;61766;60.318;25.044;2024-01-15T03:24:18;98231.24;;;-2.70;39.30
73518;BME280;61766;60.318;25.044;2024-01-15T03:26:44;98230.58;;;-2.71;39.37
73518;BME280;61766;60.318;25.044;2024-01-15T03:29:09;98232.56;;;-2.68;39.38
73518;BME280;61766;60.318;25.044;2024-01-15T03:31:34;98231.43;;;-2.71;39.26
73518;BME280;61766;60.318;25.044;2024-01-15T03:33:59;98231.82;;;-2.76;39.46
73518;BME280;61766;60.318;25.044;2024-01-15T03:36:25;98233.24;;;-3.15;39.55
73518;BME280;61766;60.318;25.044;2024-01-15T03:38:50;98233.87;;;-2.66;39.43
73518;BME280;61766;60.318;25.044;2024-01-15T03:41:15;98231.81;;;-2.77;39.72
73518;BME280;61766;60.318;25.044;2024-01-15T03:43:41;98228.05;;;-2.64;39.15
73518;BME280;61766;60.318;25.044;2024-01-15T03:46:06;98227.18;;;-2.25;39.23
73518;BME280;61766;60.318;25.044;2024-01-15T03:48:32;98224.67;;;-2.19;38.90
73518;BME280;61766;60.318;25.044;2024-01-15T03:50:57;98220.77;;;-2.62;38.68
73518;BME280;61766;60.318;25.044;2024-01-15T03:53:23;98218.37;;;-2.11;38.68
73518;BME280;61766;60.318;25.044;2024-01-15T03:55:48;98209.95;;;-2.22;38.62
73518;BME280;61766;60.318;25.044;2024-01-15T03:58:13;98212.44;;;-2.20;38.57
73518;BME280;61766;60.318;25.044;2024-01-15T04:00:39;98211.65;;;-2.37;38.86
73518;BME280;61766;60.318;25.044;2024-01-15T04:03:04;98208.23;;;-2.33;38.94
73518;BME280;61766;60.318;25.044;2024-01-15T04:05:30;98211.43;;;-2.47;38.83
73518;BME280;61766;60.318;25.044;2024-01-15T04:07:55;98207.49;;;-2.51;38.79
73518;BME280;61766;60.318;25.044;2024-01-15T04:10:20;98204.57;;;-2.68;38.58
73518;BME280;61766;60.318;25.044;2024-01-15T04:12:47;98204.17;;;-2.39;38.79
73518;BME280;61766;60.318;25.044;2024-01-15T04:15:12;98206.18;;;-2.26;38.84
73518;BME280;61766;60.318;25.044;2024-01-15T04:17:37;98203.65;;;-2.53;38.80
73518;BME280;61766;60.318;25.044;2024-01-15T04:20:02;98199.58;;;-2.55;38.61
73518;BME280;61766;60.318;25.044;2024-01-15T04:22:28;98200.50;;;-2.40;38.54
73518;BME280;61766;60.318;25.044;2024-01-15T04:24:52;98193.22;;;-2.27;38.53
73518;BME280;61766;60.318;25.044;2024-01-15T04:27:17;98191.77;;;-2.35;38.57
73518;BME280;61766;60.318;25.044;2024-01-15T04:29:43;98190.75;;;-2.39;38.61
73518;BME280;61766;60.318;25.044;2024-01-15T04:32:09;98194.08;;;-2.12;38.56
73518;BME280;61766;60.318;25.044;2024-01-15T04:34:35;98193.10;;;-2.17;38.43
73518;BME280;61766;60.318;25.044;2024-01-15T04:37:01;98193.97;;;-2.40;38.51
73518;BME280;61766;60.318;25.044;2024-01-15T04:39:26;98194.29;;;-2.03;38.16
73518;BME280;61766;60.318;25.044;2024-01-15T04:41:52;98193.83;;;-2.18;38.51
73518;BME280;61766;60.318;25.044;2024-01-15T04:44:17;98192.48;;;-2.29;38.54
73518;BME280;61766;60.318;25.044;2024-01-15T04:46:43;98195.50;;;-1.83;38.19
73518;BME280;61766;60.318;25.044;2024-01-15T04:49:08;98194.22;;;-2.44;38.43
73518;BME280;61766;60.318;25.044;2024-01-15T04:51:34;98195.29;;;-2.49;38.70
73518;BME280;61766;60.318;25.044;2024-01-15T04:53:59;98194.02;;;-2.07;38.46
73518;BME280;61766;60.318;25.044;2024-01-15T04:56:25;98196.59;;;-2.32;38.28
73518;BME280;61766;60.318;25.044;2024-01-15T04:58:50;98197.12;;;-2.27;38.23
73518;BME280;61766;60.318;25.044;2024-01-15T05:01:16;98192.62;;;-2.40;38.62
73518;BME280;61766;60.318;25.044;2024-01-15T05:03:41;98191.90;;;-2.11;38.59
73518;BME280;61766;60.318;25.044;2024-01-15T05:06:07;98193.40;;;-2.24;38.26
73518;BME280;61766;60.318;25.044;2024-01-15T05:08:32;98199.37;;;-2.88;38.84
73518;BME280;61766;60.318;25.044;2024-01-15T05:10:57;98200.53;;;-2.35;39.11
73518;BME280;61766;60.318;25.044;2024-01-15T05:13:23;98200.16;;;-2.76;39.23
73518;BME280;61766;60.318;25.044;2024-01-15T05:15:48;98197.45;;;-2.22;38.83
73518;BME280;61766;60.318;25.044;2024-01-15T05:18:13;98195.00;;;-2.37;38.68
73518;BME280;61766;60.318;25.044;2024-01-15T05:20:39;98191.21;;;-2.12;38.17
73518;BME280;61766;60.318;25.044;2024-01-15T05:23:05;98195.02;;;-2.04;37.99
73518;BME280;61766;60.318;25.044;2024-01-15T05:25:30;98196.40;;;-1.90;37.92
73518;BME280;61766;60.318;25.044;2024-01-15T05:27:56;98198.46;;;-2.06;37.51
73518;BME280;61766;60.318;25.044;2024-01-15T05:30:21;98197.60;;;-1.74;37.43
73518;BME280;61766;60.318;25.044;2024-01-15T05:32:47;98200.79;;;-1.76;37.38
73518;BME280;61766;60.318;25.044;2024-01-15T05:35:12;98203.49;;;-1.71;37.28
73518;BME280;61766;60.318;25.044;2024-01-15T05:37:39;98206.33;;;-1.62;37.11
73518;BME280;61766;60.318;25.044;2024-01-15T05:40:03;98205.45;;;-1.70;37.15
73518;BME280;61766;60.318;25.044;2024-01-15T05:42:28;98207.66;;;-1.75;36.75
73518;BME280;61766;60.318;25.044;2024-01-15T05:44:54;98209.05;;;-1.49;36.68
73518;BME280;61766;60.318;25.044;2024-01-15T05:47:20;98207.90;;;-1.67;36.75
73518;BME280;61766;60.318;25.044;2024-01-15T05:49:45;98208.75;;;-2.14;37.09
73518;BME280;61766;60.318;25.044;2024-01-15T05:52:10;98207.96;;;-2.16;37.43
73518;BME280;61766;60.318;25.044;2024-01-15T05:54:36;98209.48;;;-2.00;37.61
73518;BME280;61766;60.318;25.044;2024-01-15T05:57:02;98210.61;;;-2.29;37.65
73518;BME280;61766;60.318;25.044;2024-01-15T05:59:28;98212.66;;;-2.14;37.42
73518;BME280;61766;60.318;25.044;2024-01-15T06:01:53;98215.96;;;-1.96;37.07
73518;BME280;61766;60.318;25.044;2024-01-15T06:04:18;98215.23;;;-2.01;37.06
73518;BME280;61766;60.318;25.044;2024-01-15T06:06:43;98216.68;;;-2.48;37.37
73518;BME280;61766;60.318;25.044;2024-01-15T06:09:08;98212.47;;;-2.35;37.73
73518;BME280;61766;60.318;25.044;2024-01-15T06:11:33;98211.17;;;-2.77;37.82
73518;BME280;61766;60.318;25.044;2024-01-15T06:13:59;98209.56;;;-2.17;37.64
73518;BME280;61766;60.318;25.044;2024-01-15T06:16:24;98210.08;;;-2.07;37.60
73518;BME280;61766;60.318;25.044;2024-01-15T06:18:49;98210.48;;;-2.36;37.37
73518;BME280;61766;60.318;25.044;2024-01-15T06:21:15;98213.00;;;-2.07;37.17
73518;BME280;61766;60.318;25.044;2024-01-15T06:23:40;98218.09;;;-2.30;37.47
73518;BME280;61766;60.318;25.044;2024-01-15T06:26:06;98221.08;;;-1.93;37.15
73518;BME280;61766;60.318;25.044;2024-01-15T06:28:31;98224.70;;;-3.00;37.65
73518;BME280;61766;60.318;25.044;2024-01-15T06:30:57;98222.20;;;-2.80;37.51
73518;BME280;61766;60.318;25.044;2024-01-15T06:33:22;98224.33;;;-2.25;36.99
73518;BME280;61766;60.318;25.044;2024-01-15T06:35:48;98218.07;;;-2.39;36.85
73518;BME280;61766;60.318;25.044;2024-01-15T06:38:14;98220.13;;;-2.32;36.57
73518;BME280;61766;60.318;25.044;2024-01-15T06:40:39;98219.80;;;-2.25;36.43
73518;BME280;61766;60.318;25.044;2024-01-15T06:43:04;98223.42;;;-2.77;37.14
73518;BME280;61766;60.318;25.044;2024-01-15T06:45:30;98221.92;;;-2.29;36.90
73518;BME280;61766;60.318;25.044;2024-01-15T06:47:55;98222.78;;;-2.63;36.85
73518;BME280;61766;60.318;25.044;2024-01-15T06:50:21;98222.29;;;-2.46;36.62
73518;BME280;61766;60.318;25.044;2024-01-15T06:52:46;98223.11;;;-2.46;36.55
73518;BME280;61766;60.318;25.044;2024-01-15T06:55:12;98219.90;;;-2.65;36.32
73518;BME280;61766;60.318;25.044;2024-01-15T06:57:38;98224.75;;;-2.81;36.54
73518;BME280;61766;60.318;25.044;2024-01-15T07:00:03;98224.80;;;-2.90;36.35
73518;BME280;61766;60.318;25.044;2024-01-15T07:02:29;98228.80;;;-2.56;36.67
73518;BME280;61766;60.318;25.044;2024-01-15T07:04:54;98231.83;;;-2.92;36.77
73518;BME280;61766;60.318;25.044;2024-01-15T07:07:19;98232.06;;;-2.68;36.63
73518;BME280;61766;60.318;25.044;2024-01-15T07:09:45;98232.50;;;-2.81;36.53
73518;BME280;61766;60.318;25.044;2024-01-15T07:12:10;98231.37;;;-2.52;36.43
73518;BME280;61766;60.318;25.044;2024-01-15T07:14:36;98231.24;;;-3.27;36.49
73518;BME280;61766;60.318;25.044;2024-01-15T07:17:01;98233.95;;;-2.99;36.73
73518;BME280;61766;60.318;25.044;2024-01-15T07:19:27;98231.51;;;-3.20;37.01
73518;BME280;61766;60.318;25.044;2024-01-15T07:21:52;98232.89;;;-3.19;36.82
73518;BME280;61766;60.318;25.044;2024-01-15T07:24:18;98230.32;;;-3.25;36.58
73518;BME280;61766;60.318;25.044;2024-01-15T07:26:43;98236.14;;;-2.79;36.34
73518;BME280;61766;60.318;25.044;2024-01-15T07:29:08;98238.19;;;-2.63;36.14
73518;BME280;61766;60.318;25.044;2024-01-15T07:31:34;98237.83;;;-2.71;35.85
73518;BME280;61766;60.318;25.044;2024-01-15T07:33:59;98232.88;;;-2.40;35.62
73518;BME280;61766;60.318;25.044;2024-01-15T07:36:25;98233.06;;;-2.44;35.62
73518;BME280;61766;60.318;25.044;2024-01-15T07:38:51;98231.40;;;-2.60;35.60
73518;BME280;61766;60.318;25.044;2024-01-15T07:41:17;98230.29;;;-2.64;35.50
73518;BME280;61766;60.318;25.044;2024-01-15T07:43:42;98235.43;;;-2.66;35.61
73518;BME280;61766;60.318;25.044;2024-01-15T07:46:07;98238.87;;;-2.96;35.72
73518;BME280;61766;60.318;25.044;2024-01-15T07:48:32;98243.34;;;-2.62;35.66
73518;BME280;61766;60.318;25.044;2024-01-15T07:50:58;98243.49;;;-3.25;36.13
73518;BME280;61766;60.318;25.044;2024-01-15T07:53:23;98242.10;;;-2.82;36.07
73518;BME280;61766;60.318;25.044;2024-01-15T07:55:48;98242.59;;;-2.70;35.95
73518;BME280;61766;60.318;25.044;2024-01-15T07:58:13;98244.02;;;-2.95;36.09
73518;BME280;61766;60.318;25.044;2024-01-15T08:00:39;98243.31;;;-3.03;36.58
73518;BME280;61766;60.318;25.044;2024-01-15T08:03:04;98241.96;;;-3.36;36.84
73518;BME280;61766;60.318;25.044;2024-01-15T08:05:29;98243.94;;;-3.24;36.50
73518;BME280;61766;60.318;25.044;2024-01-15T08:07:55;98244.97;;;-2.68;36.29
73518;BME280;61766;60.318;25.044;2024-01-15T08:10:21;98244.25;;;-3.04;36.72
73518;BME280;61766;60.318;25.044;2024-01-15T08:12:46;98243.46;;;-2.98;36.74
73518;BME280;61766;60.318;25.044;2024-01-15T08:15:11;98242.92;;;-3.03;36.53
73518;BME280;61766;60.318;25.044;2024-01-15T08:17:36;98243.99;;;-3.23;36.86
73518;BME280;61766;60.318;25.044;2024-01-15T08:20:02;98243.50;;;-3.07;36.87
73518;BME280;61766;60.318;25.044;2024-01-15T08:22:27;98243.95;;;-2.90;37.08
73518;BME280;61766;60.318;25.044;2024-01-15T08:24:52;98243.45;;;-3.06;37.04
73518;BME280;61766;60.318;25.044;2024-01-15T08:27:18;98244.22;;;-3.16;37.17
73518;BME280;61766;60.318;25.044;2024-01-15T08:29:43;98244.91;;;-3.48;37.25
73518;BME280;61766;60.318;25.044;2024-01-15T08:32:08;98243.04;;;-3.30;37.61
73518;BME280;61766;60.318;25.044;2024-01-15T08:34:34;98243.09;;;-3.45;37.87
73518;BME280;61766;60.318;25.044;2024-01-15T08:36:59;98240.54;;;-3.73;38.28
73518;BME280;61766;60.318;25.044;2024-01-15T08:39:25;98244.83;;;-3.57;38.12
73518;BME280;61766;60.318;25.044;2024-01-15T08:41:50;98243.74;;;-3.56;38.00
73518;BME280;61766;60.318;25.044;2024-01-15T08:44:15;98243.71;;;-3.75;38.06
73518;BME280;61766;60.318;25.044;2024-01-15T08:46:40;98247.99;;;-3.39;37.88
73518;BME280;61766;60.318;25.044;2024-01-15T08:49:06;98247.12;;;-3.57;37.91
73518;BME280;61766;60.318;25.044;2024-01-15T08:51:31;98243.13;;;-3.78;38.39
73518;BME280;61766;60.318;25.044;2024-01-15T08:53:56;98241.43;;;-3.84;38.48
73518;BME280;61766;60.318;25.044;2024-01-15T08:56:22;98242.38;;;-3.48;38.21
73518;BME280;61766;60.318;25.044;2024-01-15T08:58:47;98239.77;;;-3.62;37.96
73518;BME280;61766;60.318;25.044;2024-01-15T09:01:12;98243.88;;;-3.41;37.65
73518;BME280;61766;60.318;25.044;2024-01-15T09:03:37;98245.76;;;-3.69;37.85
73518;BME280;61766;60.318;25.044;2024-01-15T09:06:03;98244.59;;;-3.96;37.98
73518;BME280;61766;60.318;25.044;2024-01-15T09:08:28;98246.17;;;-3.48;37.70
73518;BME280;61766;60.318;25.044;2024-01-15T09:10:53;98243.38;;;-3.15;37.74
73518;BME280;61766;60.318;25.044;2024-01-15T09:13:19;98246.38;;;-3.62;37.68
73518;BME280;61766;60.318;25.044;2024-01-15T09:15:45;98245.10;;;-3.74;38.18
73518;BME280;61766;60.318;25.044;2024-01-15T09:18:09;98246.95;;;-3.92;38.13
73518;BME280;61766;60.318;25.044;2024-01-15T09:20:35;98242.95;;;-3.92;37.90
73518;BME280;61766;60.318;25.044;2024-01-15T09:23:00;98243.72;;;-3.85;38.11
73518;BME280;61766;60.318;25.044;2024-01-15T09:25:26;98244.31;;;-3.83;38.17
73518;BME280;61766;60.318;25.044;2024-01-15T09:27:51;98243.62;;;-3.98;37.86
73518;BME280;61766;60.318;25.044;2024-01-15T09:30:17;98243.70;;;-3.61;37.68
73518;BME280;61766;60.318;25.044;2024-01-15T09:32:42;98241.50;;;-3.79;37.79
73518;BME280;61766;60.318;25.044;2024-01-15T09:35:08;98244.25;;;-4.05;37.79
73518;BME280;61766;60.318;25.044;2024-01-15T09:37:33;98247.77;;;-3.88;38.06
73518;BME280;61766;60.318;25.044;2024-01-15T09:39:58;98245.52;;;-4.03;37.88
73518;BME280;61766;60.318;25.044;2024-01-15T09:42:23;98243.14;;;-4.01;37.65
73518;BME280;61766;60.318;25.044;2024-01-15T09:44:49;98243.11;;;-3.64;37.63
73518;BME280;61766;60.318;25.044;2024-01-15T09:47:14;98247.28;;;-3.83;37.85
73518;BME280;61766;60.318;25.044;2024-01-15T09:49:40;98248.79;;;-4.48;38.27
73518;BME280;61766;60.318;25.044;2024-01-15T09:52:06;98249.33;;;-4.10;38.45
73518;BME280;61766;60.318;25.044;2024-01-15T09:54:30;98243.08;;;-4.01;38.27
73518;BME280;61766;60.318;25.044;2024-01-15T09:56:57;98247.25;;;-4.25;38.61
73518;BME280;61766;60.318;25.044;2024-01-15T09:59:22;98245.49;;;-4.32;38.38
73518;BME280;61766;60.318;25.044;2024-01-15T10:01:47;98244.34;;;-4.53;38.49
73518;BME280;61766;60.318;25.044;2024-01-15T10:04:12;98245.15;;;-4.19;39.08
73518;BME280;61766;60.318;25.044;2024-01-15T10:06:38;98247.57;;;-4.38;38.86
73518;BME280;61766;60.318;25.044;2024-01-15T10:09:03;98242.90;;;-4.35;38.61
73518;BME280;61766;60.318;25.044;2024-01-15T10:11:28;98242.34;;;-3.80;38.08
73518;BME280;61766;60.318;25.044;2024-01-15T10:13:54;98242.79;;;-4.22;38.31
73518;BME280;61766;60.318;25.044;2024-01-15T10:16:19;98242.23;;;-4.41;38.42
73518;BME280;61766;60.318;25.044;2024-01-15T10:18:44;98244.40;;;-4.42;38.45
73518;BME280;61766;60.318;25.044;2024-01-15T10:21:10;98240.88;;;-4.48;38.37
73518;BME280;61766;60.318;25.044;2024-01-15T10:23:35;98238.46;;;-4.46;38.66
73518;BME280;61766;60.318;25.044;2024-01-15T10:26:01;98236.85;;;-3.94;38.32
73518;BME280;61766;60.318;25.044;2024-01-15T10:28:29;98235.81;;;-4.09;38.29
73518;BME280;61766;60.318;25.044;2024-01-15T10:30:55;98235.76;;;-4.25;38.02
73518;BME280;61766;60.318;25.044;2024-01-15T10:33:19;98231.86;;;-4.47;38.72
73518;BME280;61766;60.318;25.044;2024-01-15T10:35:43;98232.96;;;-4.57;38.49
73518;BME280;61766;60.318;25.044;2024-01-15T10:38:08;98233.19;;;-4.73;38.41
73518;BME280;61766;60.318;25.044;2024-01-15T10:40:33;98230.46;;;-4.81;38.94
73518;BME280;61766;60.318;25.044;2024-01-15T10:42:58;98224.89;;;-4.42;38.59
73518;BME280;61766;60.318;25.044;2024-01-15T10:45:24;98222.60;;;-4.86;38.90
73518;BME280;61766;60.318;25.044;2024-01-15T10:47:49;98220.92;;;-4.63;38.97
73518;BME280;61766;60.318;25.044;2024-01-15T10:50:15;98223.04;;;-4.48;38.73
73518;BME280;61766;60.318;25.044;2024-01-15T10:52:41;98226.21;;;-4.91;39.47
73518;BME280;61766;60.318;25.044;2024-01-15T10:55:06;98227.57;;;-4.77;39.23
73518;BME280;61766;60.318;25.044;2024-01-15T10:57:30;98224.22;;;-4.93;39.13
73518;BME280;61766;60.318;25.044;2024-01-15T10:59:56;98227.43;;;-4.64;38.54
73518;BME280;61766;60.318;25.044;2024-01-15T11:02:21;98226.36;;;-4.29;38.64
73518;BME280;61766;60.318;25.044;2024-01-15T11:04:46;98229.16;;;-4.86;38.54
73518;BME280;61766;60.318;25.044;2024-01-15T11:07:11;98226.39;;;-4.66;38.67
73518;BME280;61766;60.318;25.044;2024-01-15T11:09:38;98228.58;;;-4.42;38.40
73518;BME280;61766;60.318;25.044;2024-01-15T11:12:07;98234.88;;;-4.85;38.50
73518;BME280;61766;60.318;25.044;2024-01-15T11:14:39;98232.21;;;-4.73;38.46
73518;BME280;61766;60.318;25.044;2024-01-15T11:16:58;98231.81;;;-3.93;38.12
73518;BME280;61766;60.318;25.044;2024-01-15T11:19:19;98230.08;;;-4.52;38.02
73518;BME280;61766;60.318;25.044;2024-01-15T11:21:45;98233.73;;;-4.38;38.04
73518;BME280;61766;60.318;25.044;2024-01-15T11:24:10;98238.23;;;-5.13;37.55
73518;BME280;61766;60.318;25.044;2024-01-15T11:26:44;98239.29;;;-4.25;37.34
73518;BME280;61766;60.318;25.044;2024-01-15T11:29:01;98240.96;;;-3.98;37.07
73518;BME280;61766;60.318;25.044;2024-01-15T11:31:30;98239.64;;;-4.06;37.11
73518;BME280;61766;60.318;25.044;2024-01-15T11:33:52;98239.61;;;-4.63;37.66
73518;BME280;61766;60.318;25.044;2024-01-15T11:36:17;98242.09;;;-4.30;37.49
73518;BME280;61766;60.318;25.044;2024-01-15T11:38:42;98236.47;;;-4.42;37.54
73518;BME280;61766;60.318;25.044;2024-01-15T11:41:13;98235.50;;;-4.44;37.43
73518;BME280;61766;60.318;25.044;2024-01-15T11:43:33;98232.11;;;-4.21;37.38
73518;BME280;61766;60.318;25.044;2024-01-15T11:45:58;98230.73;;;-4.70;37.56
73518;BME280;61766;60.318;25.044;2024-01-15T11:48:23;98237.49;;;-5.05;38.17
73518;BME280;61766;60.318;25.044;2024-01-15T11:50:50;98231.71;;;-5.03;38.13
73518;BME280;61766;60.318;25.044;2024-01-15T11:53:25;98233.72;;;-4.81;38.32
73518;BME280;61766;60.318;25.044;2024-01-15T11:55:43;98236.79;;;-4.84;38.55
73518;BME280;61766;60.318;25.044;2024-01-15T11:58:07;98232.61;;;-4.81;38.47
73518;BME280;61766;60.318;25.044;2024-01-15T12:00:30;98228.00;;;-4.63;38.13
73518;BME280;61766;60.318;25.044;2024-01-15T12:02:55;98231.13;;;-5.04;38.58
73518;BME280;61766;60.318;25.044;2024-01-15T12:05:22;98230.18;;;-4.64;37.73
73518;BME280;61766;60.318;25.044;2024-01-15T12:07:47;98231.03;;;-4.92;37.80
73518;BME280;61766;60.318;25.044;2024-01-15T12:10:12;98228.77;;;-5.00;37.76
73518;BME280;61766;60.318;25.044;2024-01-15T12:12:50;98230.71;;;-4.97;37.85
73518;BME280;61766;60.318;25.044;2024-01-15T12:15:03;98226.55;;;-5.04;38.23
73518;BME280;61766;60.318;25.044;2024-01-15T12:17:28;98228.00;;;-5.27;37.94
73518;BME280;61766;60.318;25.044;2024-01-15T12:19:53;98228.23;;;-5.18;38.24
73518;BME280;61766;60.318;25.044;2024-01-15T12:22:19;98231.42;;;-5.59;38.75
73518;BME280;61766;60.318;25.044;2024-01-15T12:24:44;98228.08;;;-5.74;39.19
73518;BME280;61766;60.318;25.044;2024-01-15T12:27:11;98230.32;;;-5.56;38.66
73518;BME280;61766;60.318;25.044;2024-01-15T12:29:35;98230.05;;;-5.25;38.03
73518;BME280;61766;60.318;25.044;2024-01-15T12:32:00;98230.22;;;-5.24;37.67
73518;BME280;61766;60.318;25.044;2024-01-15T12:34:28;98233.99;;;-5.37;38.14
73518;BME280;61766;60.318;25.044;2024-01-15T12:36:51;98232.40;;;-5.59;38.31
73518;BME280;61766;60.318;25.044;2024-01-15T12:39:17;98236.04;;;-5.17;37.98